Terminal Aerodrome Forecast
Issued by NWS

Home | Current Version | Previous Version | Text Only | Print | Product List | Glossary Off
Versions: 1 2 3 4 5 6 7 8 9 10 11 12

528
FTUS43 KICT 191721
TAFSLN
TAF
KSLN 191721Z 1918/2018 19015G23KT P6SM SCT250
     FM200100 17011KT P6SM SKC
     FM200800 19012KT P6SM SKC WS020/21040KT
     FM201300 19010KT P6SM SKC=

USA.gov is the U.S. government's official web portal to all federal, state and local government web resources and services.